Time;durP1;ratioP1;P1;durP2;ratioP2;P2;SDS_P1;SDS_P2;PMS_P1;PMS_P2;Temp;Humidity;BMP_temperature;BMP_pressure;BME280_temperature;BME280_humidity;BME280_pressure;Samples;Min_cycle;Max_cycle;Signal;HPM_P1;HPM_P2
2021/07/17 00:01:10;;;;;;;28.98;12.38;;;;;;;17.08;98.50;101578.38;5044073;28;20060;-87
2021/07/17 00:03:38;;;;;;;24.52;11.68;;;;;;;17.09;98.36;101582.78;5025798;28;20055;-86
2021/07/17 00:06:11;;;;;;;27.35;11.57;;;;;;;17.14;98.45;101583.53;5047299;28;20049;-86
2021/07/17 00:08:41;;;;;;;23.50;13.00;;;;;;;17.16;98.19;101568.50;5014496;28;20712;-86
2021/07/17 00:11:11;;;;;;;27.23;12.25;;;;;;;17.16;97.92;101573.78;5028689;28;20041;-87
2021/07/17 00:13:41;;;;;;;29.85;12.13;;;;;;;17.17;97.94;101583.47;5013970;28;20106;-88
2021/07/17 00:16:10;;;;;;;21.80;10.77;;;;;;;17.21;97.33;101581.63;5027029;28;20140;-87
2021/07/17 00:18:49;;;;;;;24.45;11.35;;;;;;;17.22;97.36;101582.50;5003861;28;20065;-88
2021/07/17 00:21:21;;;;;;;26.77;11.07;;;;;;;17.24;97.17;101578.91;5002813;28;20052;-87
2021/07/17 00:23:51;;;;;;;23.13;12.55;;;;;;;17.29;97.12;101581.47;4993089;28;20119;-87
2021/07/17 00:26:20;;;;;;;34.30;11.88;;;;;;;17.28;96.94;101575.28;5022660;28;20137;-87
2021/07/17 00:28:49;;;;;;;27.77;11.95;;;;;;;17.30;96.57;101568.19;5021234;28;20044;-87
2021/07/17 00:31:42;;;;;;;;;;;;;;;;;;;;;
2021/07/17 00:34:09;;;;;;;29.13;13.93;;;;;;;17.35;96.29;101571.59;4998636;28;20163;-87
2021/07/17 00:36:40;;;;;;;24.75;11.88;;;;;;;17.36;96.36;101561.88;5005318;28;20407;-87
2021/07/17 00:39:09;;;;;;;25.63;12.18;;;;;;;17.38;96.06;101562.72;5021957;28;20045;-87
2021/07/17 00:41:38;;;;;;;23.30;11.18;;;;;;;17.39;95.83;101566.22;5018208;28;20287;-87
2021/07/17 00:44:10;;;;;;;22.25;10.57;;;;;;;17.38;95.62;101568.03;5014929;28;20136;-87
2021/07/17 00:46:40;;;;;;;22.10;11.70;;;;;;;17.38;95.78;101567.13;5005186;28;20052;-87
2021/07/17 00:49:11;;;;;;;28.00;10.35;;;;;;;17.36;95.91;101560.13;5017990;28;20083;-85
2021/07/17 00:51:40;;;;;;;24.60;11.50;;;;;;;17.34;95.80;101571.66;5020026;28;20045;-86
2021/07/17 00:54:12;;;;;;;23.08;12.77;;;;;;;17.32;96.09;101573.44;5004375;28;20049;-87
2021/07/17 00:56:42;;;;;;;27.08;12.68;;;;;;;17.29;96.05;101573.53;5016448;28;20124;-87
2021/07/17 00:59:09;;;;;;;32.42;12.55;;;;;;;17.29;96.12;101573.53;5020475;28;20421;-87
2021/07/17 01:01:40;;;;;;;34.65;13.82;;;;;;;17.28;96.21;101571.78;5017052;28;20056;-87
2021/07/17 01:04:10;;;;;;;27.77;13.43;;;;;;;17.28;95.79;101574.44;5008040;28;20076;-86
2021/07/17 01:06:41;;;;;;;28.23;12.88;;;;;;;17.31;96.15;101569.06;5003621;28;20059;-86
2021/07/17 01:09:10;;;;;;;19.88;11.93;;;;;;;17.33;95.83;101568.09;5019116;28;20432;-86
2021/07/17 01:11:40;;;;;;;27.30;12.85;;;;;;;17.35;95.94;101573.38;5015742;28;20139;-86
2021/07/17 01:14:06;;;;;;;24.10;12.52;;;;;;;17.36;95.77;101576.00;5004219;28;21061;-87
2021/07/17 01:16:39;;;;;;;26.10;11.40;;;;;;;17.40;95.73;101582.06;5005111;28;20055;-86
2021/07/17 01:19:12;;;;;;;23.50;11.65;;;;;;;17.44;95.60;101578.47;5007747;28;20546;-86
2021/07/17 01:21:41;;;;;;;30.70;12.00;;;;;;;17.45;95.52;101579.34;5028386;28;20052;-86
2021/07/17 01:24:10;;;;;;;22.48;11.80;;;;;;;17.46;95.36;101579.28;5005126;28;20045;-87
2021/07/17 01:26:41;;;;;;;29.45;12.52;;;;;;;17.46;95.18;101581.09;5021650;28;20865;-86
2021/07/17 01:29:11;;;;;;;28.00;12.48;;;;;;;17.44;95.32;101583.78;5002572;28;20049;-86
2021/07/17 01:31:41;;;;;;;28.80;14.10;;;;;;;17.40;95.43;101587.38;5035230;28;20147;-87
2021/07/17 01:34:10;;;;;;;26.17;12.40;;;;;;;17.39;95.68;101579.47;5008309;28;20113;-85
2021/07/17 01:36:52;;;;;;;24.92;11.48;;;;;;;17.41;95.50;101580.31;5021263;28;20049;-86
2021/07/17 01:39:19;;;;;;;20.85;11.75;;;;;;;17.39;95.55;101567.13;5022123;28;20117;-86
2021/07/17 01:41:50;;;;;;;23.50;11.20;;;;;;;17.39;95.45;101576.81;5002025;28;20624;-86
2021/07/17 01:44:20;;;;;;;32.58;13.13;;;;;;;17.38;95.54;101575.06;5004926;28;20442;-86
2021/07/17 01:46:49;;;;;;;33.70;12.65;;;;;;;17.36;95.58;101575.13;5021195;28;20044;-86
2021/07/17 01:49:21;;;;;;;31.52;13.70;;;;;;;17.32;95.47;101569.00;5019124;28;20109;-86
2021/07/17 01:51:59;;;;;;;21.15;12.43;;;;;;;17.31;95.80;101564.66;5018852;28;20056;-86
2021/07/17 01:54:42;;;;;;;19.27;11.73;;;;;;;17.29;95.69;101560.28;5036451;28;20059;-86
2021/07/17 01:57:11;;;;;;;25.08;11.68;;;;;;;17.28;95.76;101551.47;5024466;28;20045;-86
2021/07/17 01:59:49;;;;;;;28.73;14.40;;;;;;;17.27;95.93;101555.00;5019088;28;20593;-86
2021/07/17 02:02:38;;;;;;;24.27;12.75;;;;;;;17.24;95.92;101549.81;5021553;28;20518;-86
2021/07/17 02:05:18;;;;;;;23.27;12.93;;;;;;;17.24;95.81;101549.81;5036007;28;20084;-86
2021/07/17 02:07:58;;;;;;;24.05;13.63;;;;;;;17.24;96.01;101557.75;5005788;28;20502;-86
2021/07/17 02:10:31;;;;;;;25.98;12.82;;;;;;;17.22;95.79;101556.88;5005412;28;20415;-86
2021/07/17 02:13:10;;;;;;;28.57;13.10;;;;;;;17.18;95.92;101557.88;5023225;28;20053;-86
2021/07/17 02:15:49;;;;;;;23.45;12.95;;;;;;;17.17;95.94;101556.16;5024047;28;20190;-86
2021/07/17 02:18:51;;;;;;;29.08;13.27;;;;;;;17.18;96.05;101563.16;5022432;28;20044;-86
2021/07/17 02:21:22;;;;;;;30.42;13.48;;;;;;;17.20;96.10;101558.72;5008805;28;20807;-86
2021/07/17 02:23:52;;;;;;;37.05;15.77;;;;;;;17.21;96.22;101557.81;5006233;28;20094;-86
2021/07/17 02:26:19;;;;;;;35.58;14.95;;;;;;;17.18;96.06;101550.81;5007157;28;20048;-86
2021/07/17 02:29:01;;;;;;;31.45;15.73;;;;;;;17.17;96.17;101553.50;5007840;28;20095;-86
2021/07/17 02:31:31;;;;;;;27.35;14.13;;;;;;;17.16;95.96;101554.41;5007294;28;20049;-86
2021/07/17 02:34:00;;;;;;;30.60;14.73;;;;;;;17.16;96.29;101560.56;5008391;28;20040;-85
2021/07/17 02:36:29;;;;;;;30.02;14.68;;;;;;;17.17;96.46;101554.38;5014564;28;20121;-86
2021/07/17 02:39:01;;;;;;;35.22;14.05;;;;;;;17.19;96.17;101556.97;5057179;28;20486;-85
2021/07/17 02:41:30;;;;;;;35.70;16.63;;;;;;;17.18;96.41;101555.22;5008442;28;20044;-87
2021/07/17 02:44:00;;;;;;;32.95;15.07;;;;;;;17.17;96.15;101548.22;5025429;28;20040;-86
2021/07/17 02:46:30;;;;;;;34.47;16.30;;;;;;;17.16;96.36;101546.47;5006271;28;20059;-86
2021/07/17 02:49:01;;;;;;;42.33;17.00;;;;;;;17.14;96.41;101543.84;5024890;28;20483;-86
2021/07/17 02:51:30;;;;;;;30.45;15.43;;;;;;;17.15;96.44;101544.72;5022585;28;20049;-86
2021/07/17 02:54:01;;;;;;;29.05;16.05;;;;;;;17.11;96.56;101548.34;5007240;28;20411;-86
2021/07/17 02:56:30;;;;;;;32.03;15.85;;;;;;;17.10;96.68;101543.94;5024417;28;20135;-86
2021/07/17 02:59:00;;;;;;;34.88;15.98;;;;;;;17.09;96.91;101544.84;5005340;28;20156;-86
2021/07/17 03:01:40;;;;;;;29.58;16.90;;;;;;;17.05;97.29;101541.38;5020835;28;20423;-87
2021/07/17 03:04:09;;;;;;;35.25;16.80;;;;;;;17.02;97.18;101541.47;5005599;28;20045;-87
2021/07/17 03:06:40;;;;;;;33.28;15.70;;;;;;;17.03;97.23;101540.56;5023495;28;20513;-87
2021/07/17 03:09:30;;;;;;;36.30;16.60;;;;;;;17.05;97.73;101530.81;5005771;28;20049;-85
2021/07/17 03:12:00;;;;;;;28.60;16.45;;;;;;;17.04;97.28;101531.72;5004369;28;20442;-86
2021/07/17 03:14:31;;;;;;;35.35;16.08;;;;;;;17.04;97.56;101537.03;5020985;28;20135;-87
2021/07/17 03:17:03;;;;;;;35.63;17.77;;;;;;;17.06;97.19;101529.06;5022275;28;20053;-87
2021/07/17 03:19:29;;;;;;;30.08;16.08;;;;;;;17.06;97.43;101532.56;5008216;28;20068;-84
2021/07/17 03:21:59;;;;;;;30.58;15.48;;;;;;;17.07;97.50;101539.59;5020109;28;20502;-86
2021/07/17 03:24:30;;;;;;;32.33;17.40;;;;;;;17.03;97.67;101530.84;5022564;28;20069;-86
2021/07/17 03:27:00;;;;;;;39.60;17.58;;;;;;;17.02;98.02;101541.47;5021729;28;20053;-86
2021/07/17 03:29:31;;;;;;;25.25;16.15;;;;;;;17.01;97.70;101545.00;5004413;28;20041;-87
2021/07/17 03:32:01;;;;;;;35.55;15.93;;;;;;;17.04;97.85;101539.66;5004266;28;20049;-86
2021/07/17 03:34:30;;;;;;;39.03;17.15;;;;;;;17.09;97.71;101552.78;5006592;28;20056;-86
2021/07/17 03:36:59;;;;;;;43.55;17.05;;;;;;;17.08;97.64;101558.97;5020638;28;20056;-86
2021/07/17 03:39:41;;;;;;;37.92;16.27;;;;;;;17.06;97.91;101550.22;5021928;28;20075;-86
2021/07/17 03:42:10;;;;;;;35.28;16.30;;;;;;;17.03;98.26;101553.78;5022214;28;20422;-87
2021/07/17 03:44:41;;;;;;;40.10;17.73;;;;;;;17.03;98.37;101557.28;5024456;28;20773;-86
2021/07/17 03:47:11;;;;;;;33.05;15.43;;;;;;;17.07;98.11;101560.75;5018952;28;20495;-87
2021/07/17 03:49:40;;;;;;;35.35;18.65;;;;;;;17.07;98.41;101552.81;5010101;28;20110;-88
2021/07/17 03:52:10;;;;;;;33.40;17.75;;;;;;;17.08;98.20;101543.09;5004763;28;20385;-87
2021/07/17 03:54:40;;;;;;;37.25;15.73;;;;;;;17.06;98.42;101545.78;5006707;28;20049;-88
2021/07/17 03:57:21;;;;;;;38.92;17.77;;;;;;;17.08;98.51;101541.34;5007972;28;20045;-87
2021/07/17 03:59:50;;;;;;;36.90;17.00;;;;;;;17.09;98.30;101543.09;5026024;28;20051;-88
2021/07/17 04:02:19;;;;;;;39.08;17.27;;;;;;;17.14;98.19;101546.50;5005514;28;20045;-87
2021/07/17 04:05:03;;;;;;;;;;;;;;;;;;;;;
2021/07/17 04:07:39;;;;;;;40.70;17.60;;;;;;;17.17;97.73;101541.13;5023838;28;20102;-88
2021/07/17 04:10:11;;;;;;;33.30;16.42;;;;;;;17.22;97.92;101548.09;5006028;28;20123;-85
2021/07/17 04:12:41;;;;;;;34.35;17.08;;;;;;;17.27;97.76;101551.50;5017482;28;20494;-85
2021/07/17 04:15:11;;;;;;;44.20;18.08;;;;;;;17.28;97.54;101556.75;5019607;28;20068;-87
2021/07/17 04:17:40;;;;;;;42.90;19.88;;;;;;;17.28;97.58;101555.91;5017853;28;20373;-87
2021/07/17 04:20:11;;;;;;;38.33;17.40;;;;;;;17.30;97.73;101562.91;5023361;28;20110;-88
2021/07/17 04:22:41;;;;;;;45.03;19.08;;;;;;;17.33;97.52;101561.97;5022834;28;20123;-87
2021/07/17 04:25:11;;;;;;;37.70;17.90;;;;;;;17.34;97.55;101553.13;5024353;28;20052;-88
2021/07/17 04:27:41;;;;;;;32.03;16.83;;;;;;;17.35;97.59;101554.84;5002890;28;20049;-85
2021/07/17 04:30:12;;;;;;;38.67;16.95;;;;;;;17.36;97.34;101557.47;5020476;28;20055;-86
2021/07/17 04:32:39;;;;;;;33.53;16.35;;;;;;;17.41;97.22;101564.44;5021782;28;20049;-85
2021/07/17 04:35:10;;;;;;;35.53;15.48;;;;;;;17.44;96.90;101557.31;5045099;28;20096;-86
2021/07/17 04:37:51;;;;;;;36.92;17.38;;;;;;;17.46;97.35;101558.13;5024843;28;20110;-87
2021/07/17 04:40:20;;;;;;;35.58;16.80;;;;;;;17.51;96.63;101560.66;5040556;28;20101;-86
2021/07/17 04:42:49;;;;;;;34.55;16.40;;;;;;;17.51;96.58;101558.03;5006085;28;20056;-86
2021/07/17 04:45:28;;;;;;;36.15;16.90;;;;;;;17.52;96.50;101560.63;5021218;28;20068;-86
2021/07/17 04:48:03;;;;;;;32.30;16.90;;;;;;;17.54;96.46;101560.59;5007331;28;20232;-85
2021/07/17 04:50:41;;;;;;;35.25;17.27;;;;;;;17.57;96.46;101560.50;5024038;28;20056;-85
2021/07/17 04:53:10;;;;;;;40.20;16.48;;;;;;;17.58;96.40;101564.03;5018319;28;20056;-88
2021/07/17 04:55:39;;;;;;;30.90;15.85;;;;;;;17.61;96.28;101570.13;5005854;28;20415;-86
2021/07/17 04:58:11;;;;;;;30.60;15.52;;;;;;;17.65;96.11;101565.63;4990707;28;20053;-85
2021/07/17 05:00:40;;;;;;;33.03;16.53;;;;;;;17.67;95.64;101561.16;5019732;28;20049;-85
2021/07/17 05:03:09;;;;;;;36.15;16.13;;;;;;;17.70;95.61;101566.38;5037965;28;20052;-86
2021/07/17 05:05:50;;;;;;;32.17;15.63;;;;;;;17.72;95.56;101561.94;5021479;28;20041;-86
2021/07/17 05:08:21;;;;;;;31.38;14.55;;;;;;;17.74;95.62;101551.28;5023347;28;20140;-86
2021/07/17 05:10:51;;;;;;;34.75;17.05;;;;;;;17.79;95.33;101549.41;5028199;28;20102;-86
2021/07/17 05:13:21;;;;;;;32.42;16.23;;;;;;;17.82;95.12;101550.22;4998403;28;20051;-86
2021/07/17 05:15:51;;;;;;;33.08;15.73;;;;;;;17.89;94.99;101542.13;5001477;28;20057;-86
2021/07/17 05:18:21;;;;;;;29.17;15.50;;;;;;;17.96;94.51;101549.00;5002309;28;20046;-86
2021/07/17 05:20:50;;;;;;;25.65;15.65;;;;;;;17.99;94.36;101541.88;5003206;28;20054;-86
2021/07/17 05:23:40;;;;;;;26.90;14.13;;;;;;;18.04;93.96;101544.38;5001763;28;20048;-85
2021/07/17 05:26:19;;;;;;;34.83;15.07;;;;;;;18.10;93.31;101546.00;5002314;28;20115;-86
2021/07/17 05:28:49;;;;;;;28.88;14.82;;;;;;;18.11;93.21;101553.91;4986397;28;20073;-86
2021/07/17 05:31:33;;;;;;;;;;;;;;;;;;;;;
2021/07/17 05:34:09;;;;;;;22.98;13.70;;;;;;;18.17;93.04;101556.41;4991915;28;20052;-87
2021/07/17 05:36:58;;;;;;;24.00;12.57;;;;;;;18.25;92.50;101565.94;5003875;28;20054;-85
2021/07/17 05:39:31;;;;;;;27.35;14.10;;;;;;;18.32;91.95;101557.78;4989463;28;20397;-94
2021/07/17 05:42:01;;;;;;;23.38;13.13;;;;;;;18.37;91.78;101555.00;5009159;28;20050;-90
2021/07/17 05:44:31;;;;;;;19.88;13.52;;;;;;;18.43;91.49;101554.81;5014007;28;20049;-90
2021/07/17 05:47:01;;;;;;;23.70;12.88;;;;;;;18.45;91.38;101557.47;5014129;28;20142;-91
2021/07/17 05:49:30;;;;;;;28.65;13.10;;;;;;;18.40;91.44;101562.00;5001599;28;20053;-89
2021/07/17 05:52:00;;;;;;;21.25;12.95;;;;;;;18.34;91.51;101563.03;5029074;28;20087;-92
2021/07/17 05:54:58;;;;;;;24.02;13.40;;;;;;;18.32;91.45;101565.72;5010615;28;20049;-88
2021/07/17 05:57:43;;;;;;;;;;;;;;;;;;;;;
2021/07/17 06:00:30;;;;;;;22.85;11.65;;;;;;;18.39;91.20;101569.06;5004855;28;20045;-87
2021/07/17 06:03:00;;;;;;;23.95;11.43;;;;;;;18.39;91.31;101574.38;5018001;28;20057;-89
2021/07/17 06:05:38;;;;;;;20.75;11.00;;;;;;;18.40;91.23;101575.25;5017463;28;20091;-92
2021/07/17 06:08:43;;;;;;;19.48;10.30;;;;;;;18.40;91.06;101578.78;4980727;28;20065;-90
2021/07/17 06:11:13;;;;;;;19.42;10.50;;;;;;;18.45;91.17;101582.16;5012514;28;20246;-91
2021/07/17 06:14:02;;;;;;;19.98;10.27;;;;;;;18.56;90.82;101581.00;5030411;28;20076;-89
2021/07/17 06:16:39;;;;;;;20.90;9.55;;;;;;;18.76;90.39;101596.34;4998798;28;20049;-91
2021/07/17 06:19:19;;;;;;;29.80;10.90;;;;;;;18.93;89.21;101591.50;5026999;28;20053;-90
2021/07/17 06:21:51;;;;;;;15.70;9.82;;;;;;;19.06;88.39;101586.69;5030361;28;20056;-90
2021/07/17 06:24:23;;;;;;;20.63;10.63;;;;;;;19.16;87.91;101589.94;5014343;28;20051;-89
2021/07/17 06:26:50;;;;;;;22.95;11.13;;;;;;;19.19;87.36;101592.50;5029954;28;20049;-91
2021/07/17 06:29:19;;;;;;;19.92;10.25;;;;;;;19.24;87.20;101592.34;5044849;28;20049;-89
2021/07/17 06:31:58;;;;;;;20.90;10.55;;;;;;;19.32;86.82;101591.22;5037735;28;20124;-88
2021/07/17 06:34:28;;;;;;;19.08;10.90;;;;;;;19.44;86.41;101592.63;5030187;28;20132;-89
2021/07/17 06:36:59;;;;;;;18.33;8.80;;;;;;;19.56;85.88;101591.34;5028672;28;20055;-90
2021/07/17 06:39:31;;;;;;;14.82;7.90;;;;;;;19.69;85.54;101596.28;5011234;28;20694;-88
2021/07/17 06:41:58;;;;;;;18.27;9.10;;;;;;;19.82;85.12;101605.63;5000287;28;20554;-91
2021/07/17 06:44:29;;;;;;;16.27;9.57;;;;;;;19.83;84.41;101605.56;5029627;28;20045;-90
2021/07/17 06:47:15;;;;;;;;;;;;;;;;;;;;;
2021/07/17 06:50:02;;;;;;;15.77;9.48;;;;;;;19.64;84.75;101615.88;5046486;28;20119;-89
2021/07/17 06:52:29;;;;;;;15.88;8.98;;;;;;;19.54;85.16;101617.09;5016061;28;20068;-92
2021/07/17 06:55:13;;;;;;;15.52;9.43;;;;;;;19.50;85.48;101615.44;5033957;28;20098;-90
2021/07/17 06:57:50;;;;;;;16.58;8.45;;;;;;;19.50;85.24;101615.44;5038399;28;20057;-88
2021/07/17 07:00:47;;;;;;;15.30;9.55;;;;;;;19.46;85.33;101611.16;5022454;28;20037;-89
2021/07/17 07:03:21;;;;;;;21.88;9.05;;;;;;;19.49;85.16;101621.69;5026892;28;20056;-89
2021/07/17 07:06:04;;;;;;;;;;;;;;;;;;;;;
2021/07/17 07:11:48;;;;;;;16.27;8.73;;;;;;;20.22;82.98;101619.38;5029139;28;20049;-87
2021/07/17 07:14:22;;;;;;;19.25;7.90;;;;;;;20.40;82.02;101618.75;5034650;28;20049;-89
2021/07/17 07:17:21;;;;;;;13.65;7.38;;;;;;;20.52;80.92;101620.13;5031255;28;20064;-90
2021/07/17 07:20:14;;;;;;;17.88;7.18;;;;;;;20.54;80.85;101625.38;5033273;28;20140;-90
2021/07/17 07:22:42;;;;;;;12.52;7.13;;;;;;;20.40;80.69;101620.53;5032986;28;20084;-90
2021/07/17 07:25:13;;;;;;;13.43;6.95;;;;;;;20.28;81.24;101625.34;5018807;28;20124;-89
2021/07/17 07:27:43;;;;;;;13.38;7.13;;;;;;;20.15;81.73;101619.59;5016608;28;20057;-90
2021/07/17 07:30:27;;;;;;;15.07;6.88;;;;;;;20.15;81.59;101622.25;5013580;28;20051;-89
2021/07/17 07:33:15;;;;;;;15.13;7.25;;;;;;;20.28;81.17;101621.81;5018344;28;20112;-92
2021/07/17 07:35:53;;;;;;;13.55;6.28;;;;;;;20.39;80.79;101616.13;5001464;28;20071;-90
2021/07/17 07:38:21;;;;;;;9.95;5.20;;;;;;;20.61;80.25;101617.13;5016900;28;20437;-89
2021/07/17 07:40:51;;;;;;;11.60;5.28;;;;;;;20.93;78.70;101616.91;5030543;28;20087;-90
2021/07/17 07:43:23;;;;;;;11.60;5.50;;;;;;;21.22;77.19;101614.94;5015911;28;20535;-88
2021/07/17 07:45:53;;;;;;;11.55;5.30;;;;;;;21.72;75.52;101606.78;5028447;28;20082;-89
2021/07/17 07:48:27;;;;;;;15.88;5.15;;;;;;;22.24;73.40;101617.06;5044677;28;20084;-88
2021/07/17 07:50:59;;;;;;;8.88;4.63;;;;;;;22.82;70.98;101610.13;5021913;28;20048;-88
2021/07/17 07:53:28;;;;;;;11.35;4.20;;;;;;;23.57;68.54;101602.22;5012794;28;20061;-89
2021/07/17 07:55:59;;;;;;;6.35;4.45;;;;;;;24.25;66.22;101599.75;5014030;28;20048;-88
2021/07/17 07:58:31;;;;;;;10.75;4.28;;;;;;;24.82;62.84;101595.88;5017517;28;20095;-87
2021/07/17 08:00:58;;;;;;;8.18;4.35;;;;;;;25.25;60.41;101603.38;5033265;28;20060;-88
2021/07/17 08:03:32;;;;;;;7.57;3.85;;;;;;;25.47;58.79;101603.06;5035258;28;20454;-89
2021/07/17 08:06:02;;;;;;;6.85;3.63;;;;;;;25.52;56.97;101592.94;5032830;28;20045;-89
2021/07/17 08:08:30;;;;;;;4.50;3.75;;;;;;;25.83;56.94;101601.06;5029475;28;20033;-90
2021/07/17 08:11:09;;;;;;;7.43;3.72;;;;;;;26.19;55.33;101594.47;5063398;28;20154;-90
2021/07/17 08:13:39;;;;;;;6.60;3.83;;;;;;;26.47;54.21;101600.88;5063745;28;20033;-90
2021/07/17 08:16:10;;;;;;;6.20;3.97;;;;;;;26.82;53.03;101606.75;5019636;28;20044;-89
2021/07/17 08:18:42;;;;;;;11.20;4.00;;;;;;;27.27;51.87;101600.38;5029552;28;20060;-88
2021/07/17 08:21:13;;;;;;;6.38;3.30;;;;;;;27.72;51.13;101606.41;5045023;28;20049;-89
2021/07/17 08:23:45;;;;;;;6.28;3.72;;;;;;;28.26;49.06;101597.41;5028811;28;20060;-90
2021/07/17 08:26:23;;;;;;;9.63;3.42;;;;;;;28.57;48.03;101600.66;5033280;28;20048;-93
2021/07/17 08:28:53;;;;;;;5.40;3.03;;;;;;;28.85;46.85;101596.91;5052903;28;20112;-90
2021/07/17 08:31:20;;;;;;;5.10;3.47;;;;;;;29.18;46.08;101599.97;5013881;28;20159;-90
2021/07/17 08:34:10;;;;;;;4.03;3.08;;;;;;;29.58;45.32;101601.56;5028935;28;20053;-90
2021/07/17 08:36:40;;;;;;;6.07;3.47;;;;;;;29.62;43.39;101603.06;5045746;28;20787;-92
2021/07/17 08:39:12;;;;;;;4.25;2.70;;;;;;;29.72;43.92;101604.09;5044547;28;20584;-91
2021/07/17 08:41:52;;;;;;;3.63;2.40;;;;;;;29.89;42.92;101607.38;5030779;28;20056;-91
2021/07/17 08:44:20;;;;;;;4.43;3.22;;;;;;;30.09;42.54;101605.84;5016746;28;20053;-91
2021/07/17 08:46:49;;;;;;;5.65;3.35;;;;;;;30.41;41.43;101605.19;5016397;28;20057;-90
2021/07/17 08:49:19;;;;;;;4.22;2.25;;;;;;;30.89;40.68;101601.47;5018837;28;20079;-91
2021/07/17 08:52:02;;;;;;;2.97;2.22;;;;;;;31.37;39.83;101605.69;5050365;28;20044;-92
2021/07/17 08:54:43;;;;;;;;;;;;;;;;;;;;;
2021/07/17 08:57:29;;;;;;;3.28;2.15;;;;;;;32.26;37.13;101608.22;5024001;28;20113;-92
2021/07/17 08:59:59;;;;;;;2.55;2.05;;;;;;;32.43;35.83;101602.19;5031093;28;20076;-91
2021/07/17 09:02:36;;;;;;;3.13;1.88;;;;;;;32.31;35.54;101614.09;5031525;28;20049;-92
2021/07/17 09:05:18;;;;;;;6.93;2.17;;;;;;;32.48;34.97;101610.78;5029870;28;20402;-91
2021/07/17 09:07:53;;;;;;;3.05;1.50;;;;;;;32.96;34.42;101605.75;5050275;28;20152;-90
2021/07/17 09:10:40;;;;;;;4.53;1.83;;;;;;;33.37;32.73;101612.00;5029740;28;20064;-90
2021/07/17 09:13:54;;;;;;;;;;;;;;;;;;;;;
2021/07/17 09:16:31;;;;;;;2.03;1.88;;;;;;;33.71;32.04;101608.88;5013054;28;20087;-92
2021/07/17 09:19:02;;;;;;;6.15;1.63;;;;;;;33.68;31.98;101608.34;4998877;28;20053;-91
2021/07/17 09:24:21;;;;;;;1.55;1.45;;;;;;;33.68;31.14;101609.19;5004628;28;20049;-91
2021/07/17 09:27:03;;;;;;;3.80;1.80;;;;;;;33.74;30.54;101605.91;5015844;28;20080;-92
2021/07/17 09:29:41;;;;;;;2.88;1.25;;;;;;;33.88;29.42;101603.78;4996787;28;20049;-91
2021/07/17 09:35:43;;;;;;;;;;;;;;;;;;;;;
2021/07/17 09:38:20;;;;;;;3.55;1.30;;;;;;;34.88;28.49;101605.13;4999961;28;20104;-89
2021/07/17 09:41:31;;;;;;;3.90;1.35;;;;;;;35.33;28.07;101605.31;5010207;28;20076;-91
2021/07/17 09:44:15;;;;;;;1.98;1.27;;;;;;;36.04;26.41;101601.75;5012993;28;20103;-93
2021/07/17 09:46:48;;;;;;;2.50;1.73;;;;;;;36.22;27.12;101601.72;4994419;28;20132;-92
2021/07/17 09:49:21;;;;;;;1.75;1.08;;;;;;;36.55;26.71;101596.47;4996436;28;20084;-91
2021/07/17 09:52:12;;;;;;;1.63;1.10;;;;;;;36.32;26.47;101598.88;4995662;28;20056;-92
2021/07/17 09:55:09;;;;;;;1.38;0.70;;;;;;;35.68;27.53;101601.75;5006348;28;20056;-91
2021/07/17 09:57:50;;;;;;;2.55;1.20;;;;;;;35.71;26.98;101601.47;5010400;28;20553;-91
2021/07/17 10:00:24;;;;;;;1.10;0.98;;;;;;;35.91;26.83;101598.59;4992886;28;20053;-92
2021/07/17 10:06:02;;;;;;;1.63;1.13;;;;;;;37.64;24.39;101593.09;4995543;28;20359;-93
2021/07/17 10:08:39;;;;;;;3.47;1.40;;;;;;;38.29;23.47;101596.84;5011989;28;20187;-90
2021/07/17 10:11:21;;;;;;;2.78;1.25;;;;;;;38.64;23.84;101592.81;5008749;28;20049;-91
2021/07/17 10:14:15;;;;;;;1.20;1.10;;;;;;;39.00;23.22;101600.56;4978756;28;20061;-91
2021/07/17 10:17:11;;;;;;;2.05;1.15;;;;;;;38.58;23.17;101589.94;5014983;28;20053;-91
2021/07/17 10:19:50;;;;;;;1.75;0.80;;;;;;;37.73;23.88;101595.66;5006566;28;20088;-91
2021/07/17 10:22:22;;;;;;;1.55;0.85;;;;;;;36.71;24.98;101595.72;5010013;28;20044;-90
2021/07/17 10:24:52;;;;;;;1.15;1.05;;;;;;;36.56;25.00;101591.91;5009568;28;20052;-90
2021/07/17 10:27:23;;;;;;;2.45;0.93;;;;;;;36.85;24.87;101594.25;4994168;28;20140;-90
2021/07/17 10:30:02;;;;;;;4.15;1.05;;;;;;;37.56;24.12;101593.94;5029336;28;20151;-90
2021/07/17 10:32:42;;;;;;;0.98;0.75;;;;;;;38.35;23.50;101594.28;5004759;28;20128;-90
2021/07/17 10:35:12;;;;;;;2.72;0.98;;;;;;;39.09;22.70;101584.94;5017036;28;20037;-92
2021/07/17 10:37:49;;;;;;;1.50;1.13;;;;;;;39.12;22.58;101589.22;5017634;28;20051;-91
2021/07/17 10:43:18;;;;;;;2.97;0.80;;;;;;;38.91;22.77;101592.59;5032120;28;20044;-90
2021/07/17 10:46:01;;;;;;;1.20;0.93;;;;;;;39.51;22.42;101586.38;5028962;28;20056;-89
2021/07/17 10:48:39;;;;;;;1.60;0.85;;;;;;;40.11;21.74;101581.13;5026508;28;20146;-87
2021/07/17 10:51:23;;;;;;;;;;;;;;;39.68;21.41;101589.88;5030466;28;20055;-89
2021/07/17 10:53:56;;;;;;;1.77;1.13;;;;;;;39.54;22.55;101586.03;5013508;28;19921;-88
2021/07/17 10:56:33;;;;;;;1.63;1.05;;;;;;;39.45;22.11;101586.28;5009954;28;20057;-92
2021/07/17 10:59:33;;;;;;;;;;;;;;;;;;;;;
2021/07/17 11:02:02;;;;;;;4.05;1.13;;;;;;;39.77;22.12;101574.22;5015773;28;20452;-89
2021/07/17 11:04:39;;;;;;;1.10;0.80;;;;;;;39.78;21.76;101583.28;5012630;28;20045;-89
2021/07/17 11:07:22;;;;;;;3.72;0.93;;;;;;;39.75;21.75;101575.44;5027818;28;20053;-90
2021/07/17 11:09:59;;;;;;;3.33;1.17;;;;;;;40.58;21.25;101559.84;5044783;28;20076;-89
2021/07/17 11:12:39;;;;;;;2.55;1.30;;;;;;;41.32;20.91;101563.47;5028420;28;20144;-89
2021/07/17 11:15:11;;;;;;;2.53;1.05;;;;;;;41.10;20.67;101568.13;5014700;28;20053;-90
2021/07/17 11:17:51;;;;;;;1.23;1.00;;;;;;;40.95;20.27;101563.50;5027620;28;20083;-91
2021/07/17 11:20:31;;;;;;;3.28;0.68;;;;;;;40.83;21.01;101565.03;5027660;28;20037;-92
2021/07/17 11:23:12;;;;;;;1.85;0.90;;;;;;;40.79;20.60;101555.47;5027498;28;20072;-90
2021/07/17 11:25:59;;;;;;;2.25;1.10;;;;;;;41.26;20.07;101567.84;5011729;28;20455;-89
2021/07/17 11:28:46;;;;;;;1.95;1.00;;;;;;;41.95;20.03;101560.88;5028464;28;20056;-90
2021/07/17 11:31:33;;;;;;;1.52;0.93;;;;;;;42.33;19.09;101559.66;5041153;28;20136;-89
2021/07/17 11:34:14;;;;;;;7.50;1.13;;;;;;;41.57;19.13;101558.44;5043256;28;20065;-91
2021/07/17 11:36:51;;;;;;;0.82;0.82;;;;;;;41.65;19.91;101555.53;5028571;28;20056;-87
2021/07/17 11:39:24;;;;;;;2.90;0.70;;;;;;;41.81;20.05;101559.91;5046157;28;20048;-89
2021/07/17 11:41:52;;;;;;;3.05;0.73;;;;;;;41.93;19.58;101537.38;5029026;28;20090;-88
2021/07/17 11:44:20;;;;;;;2.28;0.93;;;;;;;41.99;19.56;101548.44;5015304;28;20045;-89
2021/07/17 11:47:14;;;;;;;2.67;1.02;;;;;;;41.99;18.77;101553.09;5018012;28;20159;-92
2021/07/17 11:49:52;;;;;;;3.95;0.85;;;;;;;42.29;19.57;101548.22;5014981;28;21120;-89
2021/07/17 11:52:31;;;;;;;3.38;0.90;;;;;;;42.68;18.76;101547.81;5036456;28;20063;-90
2021/07/17 11:55:13;;;;;;;3.30;1.30;;;;;;;43.39;18.32;101543.72;4987062;28;20532;-90
2021/07/17 11:57:59;;;;;;;2.35;0.80;;;;;;;43.53;18.15;101547.38;5033490;28;20079;-90
2021/07/17 12:00:29;;;;;;;3.03;0.80;;;;;;;43.27;18.43;101535.25;5000594;28;20057;-91
2021/07/17 12:17:19;;;;;;;3.13;1.20;;;;;;;42.71;18.74;101520.69;4974437;28;20046;-89
2021/07/17 12:20:20;;;;;;;3.03;0.90;;;;;;;42.69;18.42;101508.22;5008351;28;20076;-87
2021/07/17 12:29:11;;;;;;;4.43;0.90;;;;;;;43.96;17.58;101505.56;5019346;28;20491;-89
2021/07/17 12:35:32;;;;;;;1.90;1.23;;;;;;;44.21;17.20;101507.59;5002759;28;20136;-90
2021/07/17 12:41:19;;;;;;;6.45;1.67;;;;;;;44.38;15.79;101508.84;4984890;28;20044;-90
2021/07/17 12:44:00;;;;;;;2.53;1.15;;;;;;;44.10;16.86;101500.84;5003522;28;20065;-92
2021/07/17 12:49:37;;;;;;;;;;;;;;;;;;;;;
2021/07/17 12:55:19;;;;;;;1.00;1.00;;;;;;;44.94;15.46;101489.84;5002903;28;20041;-89